createdAt,value
2023-04-22T07:02:16.349Z,12.80
2023-04-22T07:06:19.663Z,13.50
2023-04-22T07:10:22.845Z,11.50
2023-04-22T07:14:27.629Z,13.00
2023-04-22T07:18:31.016Z,11.80
2023-04-22T07:22:34.261Z,15.70
2023-04-22T07:26:38.457Z,13.10
2023-04-22T07:30:41.570Z,15.40
2023-04-22T07:34:45.048Z,14.20
2023-04-22T07:38:48.403Z,16.60
2023-04-22T07:42:51.952Z,15.20
2023-04-22T07:46:56.557Z,20.80
2023-04-22T07:51:00.121Z,20.50
2023-04-22T07:55:06.335Z,13.60
2023-04-22T07:59:12.507Z,13.50
2023-04-22T08:19:56.814Z,13.30
2023-04-22T08:23:59.682Z,9.90
2023-04-22T08:28:02.756Z,12.70
2023-04-22T08:32:05.944Z,12.40
2023-04-22T08:36:11.911Z,14.30
2023-04-22T08:40:15.506Z,18.30
2023-04-22T08:44:22.866Z,19.70
2023-04-22T08:48:26.999Z,13.20
2023-04-22T08:52:31.933Z,10.30
2023-04-22T08:56:37.663Z,10.10
2023-04-22T09:00:44.855Z,10.40
2023-04-22T09:04:50.943Z,9.90
2023-04-22T09:08:55.869Z,8.60
2023-04-22T09:13:02.039Z,9.20
2023-04-22T09:17:05.606Z,8.20
2023-04-22T09:21:09.167Z,8.70
2023-04-22T09:25:17.648Z,11.10
2023-04-22T09:29:21.381Z,11.80
2023-04-22T09:33:26.842Z,9.60
2023-04-22T09:37:42.802Z,9.90
2023-04-22T09:41:58.979Z,9.10
2023-04-22T09:46:03.555Z,8.90
2023-04-22T09:50:10.564Z,9.00
2023-04-22T09:59:01.697Z,5.70
2023-04-22T10:07:10.852Z,4.90
2023-04-22T10:11:13.879Z,6.90
2023-04-22T10:15:16.978Z,5.40
2023-04-22T10:19:25.139Z,4.90
2023-04-22T10:23:32.963Z,7.00
2023-04-22T10:27:36.334Z,5.90
2023-04-22T10:31:39.967Z,4.40
2023-04-22T10:36:15.219Z,4.20
2023-04-22T10:40:18.951Z,4.20
2023-04-22T10:44:23.214Z,4.80
2023-04-22T10:48:49.147Z,5.90
2023-04-22T10:53:04.129Z,5.70
2023-04-22T11:01:17.545Z,6.20
2023-04-22T11:05:26.010Z,6.20
2023-04-22T11:09:29.480Z,5.40
2023-04-22T11:13:32.534Z,5.70
2023-04-22T11:17:36.752Z,5.40
2023-04-22T11:21:40.556Z,5.70
2023-04-22T11:25:43.725Z,5.70
2023-04-22T11:30:00.321Z,5.60
2023-04-22T11:34:03.301Z,5.60
2023-04-22T11:38:06.504Z,4.70
2023-04-22T11:42:09.466Z,7.30
2023-04-22T11:46:12.507Z,5.50
2023-04-22T11:50:16.032Z,5.20
2023-04-22T11:54:31.205Z,5.60
2023-04-22T11:58:38.629Z,5.80
2023-04-22T12:02:42.281Z,6.00
2023-04-22T12:06:47.112Z,5.00
2023-04-22T12:10:53.348Z,5.60
2023-04-22T12:14:58.353Z,5.70
2023-04-22T12:19:03.789Z,6.20
2023-04-22T12:23:13.516Z,4.10
2023-04-22T12:27:16.769Z,4.60
2023-04-22T12:31:20.230Z,6.00
2023-04-22T12:35:23.348Z,5.00
2023-04-22T12:39:26.542Z,5.70
2023-04-22T12:43:29.635Z,4.60
2023-04-22T12:47:33.362Z,5.60
2023-04-22T12:51:36.359Z,5.00
2023-04-22T12:55:39.625Z,6.00
2023-04-22T12:59:42.749Z,5.70
2023-04-22T13:03:46.027Z,5.20
2023-04-22T13:07:59.647Z,5.50
2023-04-22T13:12:09.505Z,5.40
2023-04-22T13:16:12.577Z,5.30
2023-04-22T13:20:16.585Z,5.40
2023-04-22T13:24:20.013Z,4.90
2023-04-22T13:28:23.083Z,4.40
2023-04-22T13:32:26.193Z,4.60
2023-04-22T13:36:29.342Z,4.70
2023-04-22T13:40:32.580Z,4.60
2023-04-22T13:44:36.288Z,4.80
2023-04-22T13:48:39.356Z,4.30
2023-04-22T13:52:42.678Z,7.70
2023-04-22T13:56:45.823Z,4.90
2023-04-22T14:00:49.070Z,5.20
2023-04-22T14:04:52.311Z,4.10
2023-04-22T14:08:55.567Z,4.80
2023-04-22T14:12:58.581Z,4.10
2023-04-22T14:17:01.662Z,4.00
2023-04-22T14:21:07.196Z,3.90
2023-04-22T14:25:10.464Z,4.80
2023-04-22T14:29:14.161Z,4.30
2023-04-22T14:33:17.427Z,4.30
2023-04-22T14:37:21.658Z,4.50
2023-04-22T14:41:25.330Z,4.80
2023-04-22T14:45:30.338Z,5.50
2023-04-22T14:49:33.398Z,4.60
2023-04-22T14:53:37.299Z,4.60
2023-04-22T14:57:40.301Z,3.80
2023-04-22T15:01:43.302Z,4.00
2023-04-22T15:05:49.420Z,4.10
2023-04-22T15:09:52.898Z,4.10
2023-04-22T15:13:55.865Z,3.30
2023-04-22T15:17:59.095Z,3.40
2023-04-22T15:22:02.391Z,5.10
2023-04-22T15:26:05.475Z,4.20
2023-04-22T15:30:10.926Z,3.60
2023-04-22T15:34:14.934Z,3.60
2023-04-22T15:38:17.924Z,3.40
2023-04-22T15:42:20.886Z,4.10
2023-04-22T15:46:23.934Z,3.30
2023-04-22T15:50:27.277Z,4.10
2023-04-22T15:54:30.456Z,4.20
2023-04-22T15:58:34.710Z,4.70
2023-04-22T16:02:38.249Z,3.20
2023-04-22T16:06:41.563Z,3.60
2023-04-22T16:10:44.903Z,4.80
2023-04-22T16:14:48.086Z,4.30
2023-04-22T16:18:51.178Z,6.00
2023-04-22T16:22:54.036Z,5.30
2023-04-22T16:26:56.986Z,16.30
2023-04-22T16:31:00.685Z,17.80
2023-04-22T16:35:04.684Z,17.50
2023-04-22T16:39:07.739Z,12.70
2023-04-22T16:43:13.006Z,9.00
2023-04-22T16:47:16.037Z,8.90
2023-04-22T16:51:18.977Z,7.30
2023-04-22T16:55:21.859Z,9.60
2023-04-22T16:59:24.795Z,6.10
2023-04-22T17:03:28.306Z,7.90
2023-04-22T17:07:31.491Z,7.20
2023-04-22T17:11:34.418Z,8.30
2023-04-22T17:15:37.299Z,8.80
2023-04-22T17:19:40.431Z,13.30
2023-04-22T17:23:43.624Z,9.10
2023-04-22T17:27:46.653Z,8.20
2023-04-22T17:31:50.739Z,8.90
2023-04-22T17:35:53.704Z,10.00
2023-04-22T17:39:56.605Z,10.10
2023-04-22T17:43:59.650Z,13.40
2023-04-22T17:48:03.041Z,12.00
2023-04-22T17:52:07.140Z,12.10
2023-04-22T17:56:10.288Z,9.50
2023-04-22T18:00:18.142Z,10.70
2023-04-22T18:04:21.262Z,11.50
2023-04-22T18:08:24.371Z,11.40
2023-04-22T18:12:30.675Z,16.40
2023-04-22T18:16:34.109Z,28.10
2023-04-22T18:20:37.297Z,35.30
2023-04-22T18:24:40.892Z,36.10
2023-04-22T18:28:44.670Z,29.40
2023-04-22T18:32:48.547Z,21.70
2023-04-22T18:36:51.797Z,13.80
2023-04-22T18:40:55.470Z,16.40
2023-04-22T18:44:58.438Z,11.90
2023-04-22T18:49:01.403Z,10.20
2023-04-22T18:53:04.842Z,10.50
2023-04-22T18:57:07.953Z,11.40
2023-04-22T19:01:11.403Z,13.00
2023-04-22T19:05:14.789Z,11.50
2023-04-22T19:09:19.471Z,12.50
2023-04-22T19:13:29.603Z,10.60
2023-04-22T19:17:34.756Z,11.30
2023-04-22T19:21:39.228Z,14.40
2023-04-22T19:25:42.696Z,19.40
2023-04-22T19:29:51.300Z,22.30
2023-04-22T19:33:54.230Z,23.70
2023-04-22T19:37:57.133Z,29.00
2023-04-22T19:42:03.698Z,24.70
2023-04-22T19:46:07.416Z,27.40
2023-04-22T19:50:11.302Z,27.70
2023-04-22T19:54:16.170Z,23.80
2023-04-22T19:58:20.138Z,19.50
2023-04-22T20:02:23.930Z,16.30
2023-04-22T20:06:28.945Z,18.70
2023-04-22T20:10:32.448Z,23.10
2023-04-22T20:14:36.235Z,26.20
2023-04-22T20:18:39.490Z,22.70
2023-04-22T20:22:44.021Z,26.00
2023-04-22T20:26:50.665Z,27.70
2023-04-22T20:30:53.861Z,22.70
2023-04-22T20:34:57.225Z,24.10
2023-04-22T20:39:05.329Z,24.00
2023-04-22T20:43:08.879Z,23.50
2023-04-22T20:47:13.889Z,23.30
2023-04-22T20:51:17.299Z,22.90
2023-04-22T20:55:21.859Z,23.90
2023-04-22T20:59:25.065Z,23.60
2023-04-22T21:03:28.995Z,22.70
2023-04-22T21:07:34.200Z,22.90
2023-04-22T21:11:38.780Z,21.20
2023-04-22T21:15:48.465Z,21.60
2023-04-22T21:19:56.874Z,20.60
2023-04-22T21:24:02.257Z,23.90
2023-04-22T21:28:05.921Z,24.20
2023-04-22T21:32:10.032Z,24.60
2023-04-22T21:36:13.774Z,20.10
2023-04-22T21:40:17.112Z,18.50
2023-04-22T21:44:20.327Z,17.00
2023-04-22T21:48:23.504Z,21.60
2023-04-22T21:52:27.200Z,19.90
2023-04-22T21:56:34.202Z,18.80
2023-04-22T22:00:38.860Z,16.80
2023-04-22T22:04:42.607Z,16.80
2023-04-22T22:08:46.980Z,19.30
2023-04-22T22:12:51.058Z,24.70
2023-04-22T22:16:59.174Z,27.00
2023-04-22T22:21:02.498Z,26.00
2023-04-22T22:25:07.874Z,24.70
2023-04-22T22:29:16.422Z,23.70
2023-04-22T22:33:19.640Z,25.60
2023-04-22T22:37:23.446Z,23.80
2023-04-22T22:41:26.714Z,22.60
2023-04-22T22:45:30.438Z,17.30
2023-04-22T22:49:34.069Z,19.10
2023-04-22T22:53:37.661Z,21.90
2023-04-22T22:57:41.240Z,21.80
2023-04-22T23:01:44.695Z,18.00
2023-04-22T23:05:50.895Z,18.50
2023-04-22T23:09:54.046Z,18.00
2023-04-22T23:13:58.721Z,18.00
2023-04-22T23:18:02.149Z,16.50
2023-04-22T23:22:07.408Z,19.90
2023-04-22T23:26:11.528Z,19.50
2023-04-22T23:30:15.368Z,19.60
2023-04-22T23:34:22.763Z,18.50
2023-04-22T23:38:25.984Z,16.50
2023-04-22T23:42:29.369Z,18.60
2023-04-22T23:46:32.737Z,16.70
2023-04-22T23:50:35.985Z,15.40
2023-04-22T23:54:40.409Z,15.60
2023-04-22T23:58:44.410Z,16.40
